Time;durP1;ratioP1;P1;durP2;ratioP2;P2;SDS_P1;SDS_P2;PMS_P1;PMS_P2;Temp;Humidity;BMP_temperature;BMP_pressure;BME280_temperature;BME280_humidity;BME280_pressure;Samples;Min_cycle;Max_cycle;Signal;HPM_P1;HPM_P2
2023/08/20 00:00:19;;;;;;;5.93;1.73;;;26.40;55.40;;;;;;5068967;28;20035;-70
2023/08/20 00:02:46;;;;;;;3.28;1.60;;;26.40;55.40;;;;;;5063189;28;20372;-69
2023/08/20 00:05:13;;;;;;;3.08;1.50;;;26.40;55.50;;;;;;5064511;28;20439;-69
2023/08/20 00:07:40;;;;;;;3.70;1.67;;;26.40;55.50;;;;;;5062387;28;20031;-69
2023/08/20 00:10:07;;;;;;;3.10;1.70;;;26.40;55.50;;;;;;5067600;28;20045;-69
2023/08/20 00:12:33;;;;;;;3.20;1.70;;;26.40;55.50;;;;;;5063474;28;20066;-68
2023/08/20 00:15:06;;;;;;;2.58;1.40;;;26.40;55.50;;;;;;5070212;28;20032;-69
2023/08/20 00:17:37;;;;;;;3.42;1.88;;;26.40;55.40;;;;;;5063615;28;20072;-68
2023/08/20 00:20:12;;;;;;;3.13;1.55;;;26.30;55.40;;;;;;5067431;28;20432;-68
2023/08/20 00:22:44;;;;;;;2.72;1.60;;;26.40;55.40;;;;;;5062704;28;20123;-70
2023/08/20 00:25:12;;;;;;;3.50;1.50;;;26.30;55.40;;;;;;5054991;28;20369;-69
2023/08/20 00:27:39;;;;;;;2.97;1.40;;;26.30;55.40;;;;;;5052829;28;20037;-70
2023/08/20 00:30:06;;;;;;;3.47;1.67;;;26.30;55.50;;;;;;5067181;28;20036;-69
2023/08/20 00:32:32;;;;;;;2.47;1.48;;;26.30;55.50;;;;;;5054953;28;20047;-69
2023/08/20 00:34:58;;;;;;;3.42;1.55;;;26.30;55.50;;;;;;5064543;28;20130;-69
2023/08/20 00:37:25;;;;;;;3.22;1.33;;;26.30;55.50;;;;;;5070171;28;20043;-68
2023/08/20 00:39:51;;;;;;;2.63;1.55;;;26.30;55.50;;;;;;5064809;28;20344;-68
2023/08/20 00:42:17;;;;;;;3.80;1.48;;;26.30;55.50;;;;;;5068741;28;20039;-69
2023/08/20 00:44:46;;;;;;;2.97;1.33;;;26.30;55.50;;;;;;5060996;28;20051;-71
2023/08/20 00:47:13;;;;;;;3.15;1.48;;;26.30;55.50;;;;;;5070271;28;20035;-68
2023/08/20 00:49:41;;;;;;;2.85;1.38;;;26.30;55.50;;;;;;5043883;28;20125;-68
2023/08/20 00:52:09;;;;;;;2.85;1.38;;;26.20;55.40;;;;;;5066646;28;20580;-71
2023/08/20 00:54:35;;;;;;;2.92;1.67;;;26.20;55.40;;;;;;5047171;28;20073;-70
2023/08/20 00:57:02;;;;;;;3.50;1.55;;;26.30;55.50;;;;;;5066633;28;20116;-70
2023/08/20 00:59:32;;;;;;;4.22;1.42;;;26.20;55.50;;;;;;5047520;28;20029;-70
2023/08/20 01:01:58;;;;;;;2.25;1.20;;;26.20;55.50;;;;;;5043931;28;20058;-70
2023/08/20 01:04:24;;;;;;;2.47;1.52;;;26.20;55.50;;;;;;5074353;28;20021;-68
2023/08/20 01:07:09;;;;;;;3.85;1.48;;;26.20;55.50;;;;;;5068258;28;20398;-69
2023/08/20 01:10:08;;;;;;;3.67;1.50;;;26.20;55.50;;;;;;5058415;28;20133;-69
2023/08/20 01:12:35;;;;;;;2.40;1.25;;;26.20;55.40;;;;;;5030392;28;20032;-70
2023/08/20 01:15:01;;;;;;;1.83;1.33;;;26.20;55.50;;;;;;5066084;28;20335;-68
2023/08/20 01:17:27;;;;;;;2.75;1.38;;;26.20;55.50;;;;;;5051806;28;20111;-69
2023/08/20 01:19:53;;;;;;;3.13;1.30;;;26.20;55.50;;;;;;5047496;28;20167;-70
2023/08/20 01:22:59;;;;;;;2.75;1.23;;;26.10;55.50;;;;;;5046554;28;20049;-69
2023/08/20 01:25:43;;;;;;;3.60;1.42;;;26.10;55.50;;;;;;5067954;28;20399;-70
2023/08/20 01:28:28;;;;;;;3.78;1.45;;;26.20;55.60;;;;;;5062342;28;20094;-70
2023/08/20 01:30:56;;;;;;;3.55;1.77;;;26.10;55.60;;;;;;5063623;28;20029;-67
2023/08/20 01:33:24;;;;;;;2.63;1.38;;;26.10;55.60;;;;;;5049997;28;20108;-68
2023/08/20 01:35:52;;;;;;;1.77;1.13;;;26.10;55.70;;;;;;5040780;28;20020;-69
2023/08/20 01:38:19;;;;;;;3.83;1.40;;;26.10;55.70;;;;;;5065992;28;20088;-70
2023/08/20 01:40:45;;;;;;;3.92;1.27;;;26.10;55.70;;;;;;5065888;28;20045;-69
2023/08/20 01:43:11;;;;;;;2.28;1.30;;;26.10;55.70;;;;;;5070756;28;20036;-69
2023/08/20 01:45:37;;;;;;;4.30;1.92;;;26.10;55.70;;;;;;5066122;28;20288;-67
2023/08/20 01:48:03;;;;;;;2.78;1.23;;;26.10;55.70;;;;;;5072877;28;20051;-71
2023/08/20 01:50:30;;;;;;;2.63;1.38;;;26.00;55.70;;;;;;5077621;28;20016;-68
2023/08/20 01:52:56;;;;;;;3.42;1.40;;;26.00;55.70;;;;;;5065359;28;20107;-69
2023/08/20 01:55:22;;;;;;;3.17;1.52;;;26.10;55.90;;;;;;5049791;28;20356;-68
2023/08/20 01:57:48;;;;;;;2.40;1.27;;;26.00;55.80;;;;;;5045970;28;20028;-69
2023/08/20 02:00:14;;;;;;;4.22;1.60;;;26.10;55.90;;;;;;5047161;28;20107;-68
2023/08/20 02:02:40;;;;;;;2.95;1.20;;;26.00;55.80;;;;;;5045592;28;20040;-68
2023/08/20 02:05:06;;;;;;;2.47;1.05;;;26.00;55.80;;;;;;5044213;28;20057;-68
2023/08/20 02:07:32;;;;;;;2.60;1.50;;;26.00;55.80;;;;;;5050807;28;20036;-68
2023/08/20 02:09:59;;;;;;;1.30;0.90;;;26.00;55.80;;;;;;5052223;28;20043;-68
2023/08/20 02:12:26;;;;;;;2.58;1.40;;;26.00;55.80;;;;;;5070003;28;20036;-68
2023/08/20 02:14:52;;;;;;;3.75;1.42;;;26.00;55.80;;;;;;5070850;28;20032;-68
2023/08/20 02:17:21;;;;;;;3.80;1.48;;;26.00;55.80;;;;;;5033720;28;20020;-69
2023/08/20 02:19:48;;;;;;;2.25;1.23;;;26.00;55.80;;;;;;5050177;28;20020;-68
2023/08/20 02:22:14;;;;;;;2.50;1.20;;;26.00;55.80;;;;;;5067451;28;20041;-70
2023/08/20 02:24:39;;;;;;;2.80;1.63;;;26.00;55.80;;;;;;5067733;28;20016;-69
2023/08/20 02:27:05;;;;;;;2.53;1.27;;;26.00;55.80;;;;;;5074890;28;20033;-68
2023/08/20 02:29:31;;;;;;;2.80;1.77;;;26.00;55.80;;;;;;5056270;28;20029;-71
2023/08/20 02:31:57;;;;;;;2.35;1.40;;;26.00;55.90;;;;;;5049330;28;20170;-69
2023/08/20 02:34:23;;;;;;;4.22;1.58;;;25.90;55.80;;;;;;5080082;28;20031;-68
2023/08/20 02:36:49;;;;;;;2.83;1.50;;;26.00;55.90;;;;;;5044802;28;20077;-69
2023/08/20 02:39:16;;;;;;;4.10;1.65;;;26.00;55.90;;;;;;5068386;28;20409;-68
2023/08/20 02:41:42;;;;;;;3.92;1.60;;;26.00;55.90;;;;;;5064566;28;20036;-68
2023/08/20 02:44:09;;;;;;;3.20;1.35;;;26.00;56.00;;;;;;5084361;28;20028;-69
2023/08/20 02:46:35;;;;;;;3.72;1.83;;;26.00;56.00;;;;;;5051368;28;20040;-68
2023/08/20 02:49:01;;;;;;;3.45;1.50;;;26.00;56.00;;;;;;5077118;28;20029;-69
2023/08/20 02:51:27;;;;;;;2.75;1.35;;;25.90;56.00;;;;;;5061949;28;20309;-70
2023/08/20 02:53:53;;;;;;;3.65;1.60;;;26.00;56.10;;;;;;5083733;28;20450;-69
2023/08/20 02:56:20;;;;;;;3.10;1.40;;;26.00;56.10;;;;;;5070640;28;20028;-69
2023/08/20 02:58:46;;;;;;;3.10;1.65;;;25.90;56.00;;;;;;5038723;28;20024;-69
2023/08/20 03:01:23;;;;;;;3.28;1.70;;;25.90;56.00;;;;;;5045655;28;20044;-68
2023/08/20 03:03:49;;;;;;;3.65;1.33;;;25.90;56.00;;;;;;5055081;28;20333;-69
2023/08/20 03:06:16;;;;;;;3.30;1.23;;;25.90;56.00;;;;;;5068596;28;20087;-70
2023/08/20 03:08:41;;;;;;;2.00;1.20;;;25.90;56.10;;;;;;5034770;28;20036;-69
2023/08/20 03:11:07;;;;;;;2.20;1.30;;;25.90;56.00;;;;;;5057667;28;20035;-68
2023/08/20 03:13:33;;;;;;;3.35;1.27;;;25.90;56.00;;;;;;5046955;28;20111;-70
2023/08/20 03:15:59;;;;;;;2.70;1.38;;;25.90;56.00;;;;;;5075049;28;20035;-70
2023/08/20 03:18:26;;;;;;;3.45;1.38;;;25.90;56.00;;;;;;5053671;28;20450;-68
2023/08/20 03:20:55;;;;;;;3.08;1.50;;;25.80;55.90;;;;;;5071326;28;20116;-69
2023/08/20 03:23:21;;;;;;;2.13;1.20;;;25.80;55.90;;;;;;5068316;28;22015;-68
2023/08/20 03:25:47;;;;;;;2.88;1.30;;;25.90;56.00;;;;;;5057884;28;20071;-70
2023/08/20 03:28:13;;;;;;;2.28;1.30;;;25.80;56.00;;;;;;5043109;28;20036;-68
2023/08/20 03:30:39;;;;;;;5.28;1.40;;;25.80;55.90;;;;;;5061867;28;20561;-70
2023/08/20 03:33:05;;;;;;;2.38;1.48;;;25.80;55.90;;;;;;5040310;28;20029;-69
2023/08/20 03:35:34;;;;;;;3.70;1.42;;;25.80;55.90;;;;;;5068169;28;20167;-69
2023/08/20 03:38:00;;;;;;;2.45;1.42;;;25.80;55.90;;;;;;5046040;28;20115;-69
2023/08/20 03:40:28;;;;;;;2.38;1.30;;;25.80;55.90;;;;;;5050233;28;20047;-69
2023/08/20 03:42:54;;;;;;;3.25;1.48;;;25.80;55.90;;;;;;5061809;28;20041;-68
2023/08/20 03:45:19;;;;;;;1.95;1.38;;;25.80;55.90;;;;;;5066741;28;20024;-68
2023/08/20 03:47:46;;;;;;;3.92;1.75;;;25.80;55.90;;;;;;5034953;28;20060;-69
2023/08/20 03:50:12;;;;;;;3.38;1.60;;;25.80;55.90;;;;;;5052944;28;20149;-69
2023/08/20 03:52:39;;;;;;;2.00;1.20;;;25.80;55.90;;;;;;5044983;28;20045;-68
2023/08/20 03:55:05;;;;;;;2.25;1.10;;;25.80;55.90;;;;;;5033403;28;20408;-69
2023/08/20 03:57:32;;;;;;;4.00;1.70;;;25.80;55.90;;;;;;5040628;28;20434;-67
2023/08/20 03:59:58;;;;;;;3.50;1.70;;;25.80;55.80;;;;;;5068566;28;20487;-69
2023/08/20 04:02:24;;;;;;;2.58;1.50;;;25.70;55.70;;;;;;5053493;28;20050;-68
2023/08/20 04:04:50;;;;;;;2.97;1.52;;;25.70;55.70;;;;;;5055119;28;20024;-69
2023/08/20 04:07:17;;;;;;;2.63;1.48;;;25.80;55.70;;;;;;5052447;28;20090;-67
2023/08/20 04:09:43;;;;;;;2.38;1.20;;;25.70;55.60;;;;;;5070619;28;20417;-69
2023/08/20 04:12:11;;;;;;;2.75;1.42;;;25.70;55.60;;;;;;5049571;28;20056;-71
2023/08/20 04:14:37;;;;;;;4.22;1.65;;;25.70;55.70;;;;;;5071109;28;20071;-69
2023/08/20 04:17:03;;;;;;;3.90;1.50;;;25.70;55.60;;;;;;5051458;28;20028;-70
2023/08/20 04:19:31;;;;;;;2.83;1.67;;;25.70;55.60;;;;;;5044760;28;20033;-68
2023/08/20 04:21:57;;;;;;;4.28;1.60;;;25.70;55.60;;;;;;5055812;28;20025;-68
2023/08/20 04:24:23;;;;;;;4.13;1.70;;;25.70;55.60;;;;;;5055362;28;20379;-69
2023/08/20 04:26:49;;;;;;;2.53;1.33;;;25.60;55.60;;;;;;5069323;28;20033;-68
2023/08/20 04:29:20;;;;;;;4.03;1.52;;;25.70;55.70;;;;;;5037584;28;20055;-69
2023/08/20 04:31:46;;;;;;;2.88;1.45;;;25.70;55.70;;;;;;5055343;28;20044;-68
2023/08/20 04:34:12;;;;;;;2.40;1.55;;;25.70;55.70;;;;;;5066200;28;20021;-69
2023/08/20 04:36:47;;;;;;;2.33;1.40;;;25.60;55.60;;;;;;5037318;28;20025;-69
2023/08/20 04:39:13;;;;;;;3.25;1.90;;;25.60;55.60;;;;;;5051360;28;20039;-69
2023/08/20 04:41:44;;;;;;;3.25;1.50;;;25.60;55.60;;;;;;5052973;28;20040;-67
2023/08/20 04:44:14;;;;;;;2.95;1.50;;;25.60;55.60;;;;;;5058875;28;20028;-67
2023/08/20 04:46:43;;;;;;;2.63;1.48;;;25.60;55.60;;;;;;5051976;28;20037;-70
2023/08/20 04:49:09;;;;;;;2.60;1.33;;;25.60;55.60;;;;;;5050708;28;20085;-68
2023/08/20 04:51:35;;;;;;;3.28;1.70;;;25.60;55.60;;;;;;5042560;28;20058;-69
2023/08/20 04:54:01;;;;;;;2.83;1.60;;;25.60;55.60;;;;;;5081431;28;20063;-70
2023/08/20 04:56:28;;;;;;;2.90;1.60;;;25.60;55.60;;;;;;5058489;28;20427;-68
2023/08/20 04:58:55;;;;;;;3.50;1.65;;;25.60;55.60;;;;;;5056262;28;20073;-69
2023/08/20 05:01:41;;;;;;;3.13;1.60;;;25.60;56.30;;;;;;5052497;28;20037;-70
2023/08/20 05:04:08;;;;;;;2.72;1.48;;;25.60;55.60;;;;;;5049527;28;20108;-69
2023/08/20 05:06:34;;;;;;;3.85;1.65;;;25.60;55.60;;;;;;5041506;28;20124;-68
2023/08/20 05:09:00;;;;;;;1.73;1.40;;;25.60;55.60;;;;;;5064642;28;20086;-67
2023/08/20 05:11:26;;;;;;;3.65;1.75;;;25.60;55.60;;;;;;5045453;28;20463;-66
2023/08/20 05:13:54;;;;;;;2.83;1.60;;;25.60;55.60;;;;;;5074187;28;20046;-69
2023/08/20 05:16:20;;;;;;;3.22;1.40;;;25.60;55.60;;;;;;5072080;28;20058;-67
2023/08/20 05:18:46;;;;;;;3.15;1.75;;;25.60;55.60;;;;;;5045477;28;20029;-67
2023/08/20 05:21:13;;;;;;;2.67;1.35;;;25.60;55.60;;;;;;5056147;28;20032;-67
2023/08/20 05:23:40;;;;;;;3.08;1.63;;;25.60;55.70;;;;;;5067494;28;20122;-68
2023/08/20 05:26:07;;;;;;;2.97;1.55;;;25.60;55.70;;;;;;5036440;28;20040;-69
2023/08/20 05:28:34;;;;;;;2.65;1.40;;;25.60;55.70;;;;;;5071046;28;20115;-68
2023/08/20 05:31:00;;;;;;;3.05;1.50;;;25.60;55.70;;;;;;5045102;28;20084;-67
2023/08/20 05:33:26;;;;;;;3.40;1.70;;;25.60;55.70;;;;;;5047809;28;20255;-70
2023/08/20 05:35:54;;;;;;;3.17;1.50;;;25.60;55.60;;;;;;5055970;28;20025;-70
2023/08/20 05:38:21;;;;;;;4.03;1.58;;;25.60;55.60;;;;;;5034385;28;20344;-69
2023/08/20 05:40:48;;;;;;;3.15;1.50;;;25.60;55.60;;;;;;5040568;28;20032;-68
2023/08/20 05:43:14;;;;;;;2.75;1.30;;;25.60;55.60;;;;;;5059663;28;20060;-70
2023/08/20 05:45:41;;;;;;;3.40;1.88;;;25.60;55.60;;;;;;5053705;28;20024;-70
2023/08/20 05:48:09;;;;;;;2.75;1.40;;;25.60;55.60;;;;;;5071938;28;20048;-69
2023/08/20 05:50:35;;;;;;;3.45;1.52;;;25.60;55.60;;;;;;5069904;28;20321;-71
2023/08/20 05:53:01;;;;;;;2.03;1.30;;;25.60;55.50;;;;;;5041188;28;20024;-70
2023/08/20 05:55:28;;;;;;;3.40;1.40;;;25.60;55.50;;;;;;5039270;28;20094;-69
2023/08/20 05:57:55;;;;;;;2.92;1.40;;;25.60;55.50;;;;;;5049931;28;20106;-68
2023/08/20 06:00:21;;;;;;;4.13;1.88;;;25.60;55.40;;;;;;5036544;28;20419;-68
2023/08/20 06:02:47;;;;;;;3.78;1.77;;;25.60;55.40;;;;;;5063795;28;20041;-69
2023/08/20 06:05:13;;;;;;;3.50;1.40;;;25.60;55.40;;;;;;5060112;28;20025;-67
2023/08/20 06:07:40;;;;;;;2.40;1.17;;;25.60;55.40;;;;;;5073157;28;20420;-66
2023/08/20 06:10:07;;;;;;;1.80;1.33;;;25.60;55.40;;;;;;5059613;28;20108;-68
2023/08/20 06:12:33;;;;;;;3.78;1.67;;;25.60;55.40;;;;;;5035716;28;20056;-69
2023/08/20 06:14:59;;;;;;;2.75;1.40;;;25.60;55.30;;;;;;5063856;28;20035;-68
2023/08/20 06:17:25;;;;;;;5.47;1.77;;;25.60;55.30;;;;;;5070732;28;20107;-69
2023/08/20 06:19:51;;;;;;;2.97;1.23;;;25.70;55.30;;;;;;5074877;28;20359;-68
2023/08/20 06:22:17;;;;;;;2.80;1.20;;;25.60;55.20;;;;;;5055326;28;20036;-67
2023/08/20 06:24:43;;;;;;;2.83;1.40;;;25.60;55.20;;;;;;5073445;28;20159;-68
2023/08/20 06:27:09;;;;;;;2.78;1.23;;;25.60;55.10;;;;;;5054173;28;20064;-69
2023/08/20 06:29:35;;;;;;;2.45;1.40;;;25.70;55.10;;;;;;5073178;28;20073;-69
2023/08/20 06:32:01;;;;;;;2.90;1.25;;;25.60;55.10;;;;;;5086775;28;20059;-70
2023/08/20 06:34:27;;;;;;;4.63;1.40;;;25.60;55.00;;;;;;5074691;28;20095;-68
2023/08/20 06:36:52;;;;;;;2.70;1.33;;;25.60;55.00;;;;;;5093467;28;20055;-70
2023/08/20 06:39:19;;;;;;;4.07;1.60;;;25.60;54.90;;;;;;5076673;28;20047;-69
2023/08/20 06:41:46;;;;;;;5.97;1.60;;;25.60;54.90;;;;;;5074747;28;20044;-71
2023/08/20 06:44:19;;;;;;;4.10;1.40;;;25.70;54.90;;;;;;5055725;28;20039;-67
2023/08/20 06:46:45;;;;;;;3.30;1.40;;;25.60;54.80;;;;;;5057875;28;20128;-69
2023/08/20 06:49:11;;;;;;;2.63;1.25;;;25.60;54.80;;;;;;5070321;28;20180;-67
2023/08/20 06:51:37;;;;;;;3.00;1.33;;;25.60;54.80;;;;;;5063783;28;20336;-70
2023/08/20 06:54:05;;;;;;;3.40;1.30;;;25.60;54.80;;;;;;5052303;28;20025;-68
2023/08/20 06:56:32;;;;;;;3.55;1.30;;;25.60;54.80;;;;;;5061062;28;20043;-67
2023/08/20 06:58:58;;;;;;;4.07;1.50;;;25.70;54.80;;;;;;5073108;28;20397;-67
2023/08/20 07:01:24;;;;;;;3.60;1.40;;;25.60;54.70;;;;;;5046672;28;20051;-68
2023/08/20 07:03:50;;;;;;;3.22;1.38;;;25.60;54.70;;;;;;5071773;28;20028;-67
2023/08/20 07:06:18;;;;;;;7.82;1.80;;;25.70;54.70;;;;;;5071568;28;20376;-68
2023/08/20 07:08:44;;;;;;;3.63;1.40;;;25.70;54.70;;;;;;5070833;28;20100;-66
2023/08/20 07:11:10;;;;;;;3.75;1.52;;;25.70;54.60;;;;;;5075919;28;20047;-69
2023/08/20 07:13:36;;;;;;;4.50;1.42;;;25.70;54.60;;;;;;5060188;28;20114;-69
2023/08/20 07:16:02;;;;;;;3.65;1.35;;;25.70;54.60;;;;;;5070221;28;20112;-63
2023/08/20 07:18:28;;;;;;;4.38;1.50;;;25.70;54.50;;;;;;5074130;28;20147;-68
2023/08/20 07:20:55;;;;;;;3.47;1.40;;;25.70;54.50;;;;;;5074743;28;20113;-70
2023/08/20 07:23:22;;;;;;;5.45;1.60;;;25.70;54.50;;;;;;5070824;28;20025;-68
2023/08/20 07:25:48;;;;;;;3.70;1.80;;;25.60;54.40;;;;;;5074864;28;20044;-70
2023/08/20 07:28:14;;;;;;;4.43;1.33;;;25.70;54.50;;;;;;5054385;28;20040;-70
2023/08/20 07:30:40;;;;;;;4.07;1.25;;;25.70;54.50;;;;;;5081080;28;20032;-70
2023/08/20 07:33:07;;;;;;;5.50;1.48;;;25.70;54.50;;;;;;5074225;28;20028;-67
2023/08/20 07:35:33;;;;;;;2.85;1.00;;;25.70;54.40;;;;;;5066708;28;20024;-69
2023/08/20 07:37:59;;;;;;;4.35;1.60;;;25.70;54.40;;;;;;5054016;28;20379;-70
2023/08/20 07:40:25;;;;;;;3.30;0.98;;;25.70;54.30;;;;;;5072963;28;20028;-69
2023/08/20 07:42:51;;;;;;;3.75;1.02;;;25.70;54.30;;;;;;5071878;28;20036;-68
2023/08/20 07:45:17;;;;;;;2.80;1.20;;;25.70;54.20;;;;;;5075129;28;20031;-69
2023/08/20 07:47:43;;;;;;;2.30;0.98;;;25.70;54.20;;;;;;5058193;28;20040;-68
2023/08/20 07:50:09;;;;;;;3.45;1.10;;;25.80;54.20;;;;;;5070469;28;20036;-68
2023/08/20 07:52:35;;;;;;;2.97;1.00;;;25.80;54.10;;;;;;5073723;28;20149;-66
2023/08/20 07:55:01;;;;;;;1.63;0.90;;;25.80;54.10;;;;;;5082040;28;20404;-68
2023/08/20 07:57:27;;;;;;;2.65;1.00;;;25.80;54.00;;;;;;5071727;28;20032;-68
2023/08/20 07:59:52;;;;;;;1.75;0.80;;;25.80;53.90;;;;;;5071715;28;20056;-68
2023/08/20 08:02:18;;;;;;;2.63;0.95;;;25.80;53.90;;;;;;5071880;28;20021;-68
2023/08/20 08:04:44;;;;;;;2.13;1.00;;;25.80;53.80;;;;;;5053601;28;20033;-68
2023/08/20 08:07:11;;;;;;;2.13;1.00;;;25.80;53.70;;;;;;5075834;28;20043;-67
2023/08/20 08:09:37;;;;;;;1.23;0.80;;;25.80;53.60;;;;;;5069430;28;20056;-65
2023/08/20 08:12:04;;;;;;;3.08;0.93;;;25.80;53.60;;;;;;5078590;28;20028;-66
2023/08/20 08:14:30;;;;;;;2.35;0.95;;;25.80;53.50;;;;;;5071358;28;20028;-65
2023/08/20 08:16:57;;;;;;;2.78;0.85;;;25.80;53.40;;;;;;5071480;28;20062;-66
2023/08/20 08:19:23;;;;;;;2.45;0.70;;;25.80;53.30;;;;;;5050803;28;20108;-69
2023/08/20 08:21:49;;;;;;;3.20;0.90;;;25.80;53.20;;;;;;5070494;28;20115;-72
2023/08/20 08:24:15;;;;;;;1.95;0.75;;;25.90;53.20;;;;;;5070556;28;20093;-66
2023/08/20 08:26:41;;;;;;;1.67;0.77;;;25.80;53.10;;;;;;5088303;28;20031;-69
2023/08/20 08:29:08;;;;;;;1.77;0.80;;;25.80;53.10;;;;;;5073402;28;20039;-67
2023/08/20 08:31:34;;;;;;;1.58;0.77;;;25.80;53.10;;;;;;5091726;28;20035;-69
2023/08/20 08:34:03;;;;;;;1.75;0.70;;;25.90;53.10;;;;;;5062865;28;20343;-68
2023/08/20 08:36:29;;;;;;;2.55;0.90;;;25.80;52.90;;;;;;5053451;28;20339;-69
2023/08/20 08:38:55;;;;;;;2.67;0.80;;;25.80;52.80;;;;;;5054651;28;20292;-69
2023/08/20 08:41:25;;;;;;;1.70;0.70;;;25.90;52.80;;;;;;5059853;28;20158;-69
2023/08/20 08:43:55;;;;;;;1.58;0.57;;;25.90;52.80;;;;;;5053875;28;20033;-69
2023/08/20 08:46:22;;;;;;;1.10;0.68;;;25.90;52.70;;;;;;5065717;28;20080;-68
2023/08/20 08:48:48;;;;;;;2.33;0.85;;;25.90;52.60;;;;;;5053289;28;20056;-68
2023/08/20 08:51:14;;;;;;;1.35;0.60;;;25.90;52.40;;;;;;5073549;28;20062;-66
2023/08/20 08:53:45;;;;;;;1.90;0.77;;;25.90;52.40;;;;;;5075227;28;20362;-70
2023/08/20 08:56:11;;;;;;;2.33;0.77;;;25.90;52.30;;;;;;5053352;28;20411;-70
2023/08/20 08:58:37;;;;;;;1.77;0.60;;;25.90;52.30;;;;;;5052608;28;20039;-68
2023/08/20 09:01:03;;;;;;;1.60;0.60;;;25.90;52.30;;;;;;5040855;28;20433;-69
2023/08/20 09:03:29;;;;;;;1.45;0.57;;;25.90;52.20;;;;;;5055568;28;20037;-68
2023/08/20 09:05:57;;;;;;;1.65;0.80;;;25.90;52.20;;;;;;5054697;28;20025;-69
2023/08/20 09:08:27;;;;;;;2.33;0.70;;;25.90;52.10;;;;;;5055255;28;20474;-68
2023/08/20 09:10:55;;;;;;;1.90;0.65;;;25.90;52.00;;;;;;5054465;28;20358;-70
2023/08/20 09:13:51;;;;;;;2.63;0.80;;;25.90;51.90;;;;;;5052308;28;20470;-68
2023/08/20 09:16:17;;;;;;;1.33;0.75;;;25.90;51.80;;;;;;5042723;28;20041;-69
2023/08/20 09:18:46;;;;;;;1.23;0.68;;;25.90;51.80;;;;;;5052084;28;20359;-63
2023/08/20 09:21:13;;;;;;;1.33;0.60;;;25.90;51.70;;;;;;5055165;28;20036;-69
2023/08/20 09:23:40;;;;;;;1.70;0.50;;;26.00;51.70;;;;;;5046799;28;20577;-68
2023/08/20 09:26:07;;;;;;;1.92;0.63;;;25.90;51.60;;;;;;5047899;28;20112;-66
2023/08/20 09:28:46;;;;;;;2.03;0.70;;;25.90;51.60;;;;;;5043213;28;20340;-68
2023/08/20 09:31:13;;;;;;;2.65;0.60;;;26.00;51.70;;;;;;5046410;28;20032;-68
2023/08/20 09:33:52;;;;;;;1.55;0.70;;;26.00;51.70;;;;;;5048647;28;20112;-68
2023/08/20 09:36:19;;;;;;;2.47;0.73;;;26.00;52.30;;;;;;5047387;28;20098;-68
2023/08/20 09:38:45;;;;;;;1.50;0.60;;;26.00;51.80;;;;;;5045117;28;20037;-67
2023/08/20 09:41:12;;;;;;;2.22;0.60;;;26.00;51.80;;;;;;5046443;28;20052;-68
2023/08/20 09:43:38;;;;;;;2.17;0.70;;;26.00;51.90;;;;;;5043278;28;20052;-67
2023/08/20 09:46:05;;;;;;;2.25;0.70;;;26.00;51.90;;;;;;5046461;28;20025;-67
2023/08/20 09:48:38;;;;;;;1.42;0.50;;;26.10;52.00;;;;;;5068679;28;20127;-67
2023/08/20 09:51:09;;;;;;;2.67;0.60;;;26.00;51.90;;;;;;5073902;28;20430;-67
2023/08/20 09:53:48;;;;;;;2.80;0.50;;;26.10;51.90;;;;;;5092297;28;20096;-68
2023/08/20 09:56:31;;;;;;;1.45;0.70;;;26.10;51.90;;;;;;5083830;28;20044;-67
2023/08/20 09:58:58;;;;;;;1.85;0.70;;;26.10;51.90;;;;;;5073556;28;20035;-66
2023/08/20 10:01:25;;;;;;;1.58;0.80;;;26.10;51.90;;;;;;5061375;28;20028;-67
2023/08/20 10:03:51;;;;;;;1.05;0.63;;;26.10;52.00;;;;;;5075296;28;20081;-66
2023/08/20 10:06:19;;;;;;;1.55;0.63;;;26.20;52.00;;;;;;5077309;28;20069;-67
2023/08/20 10:08:46;;;;;;;0.93;0.52;;;26.20;52.00;;;;;;5050270;28;20054;-66
2023/08/20 10:11:13;;;;;;;2.25;0.70;;;26.20;52.10;;;;;;5053559;28;20127;-66
2023/08/20 10:13:39;;;;;;;2.25;0.73;;;26.20;52.10;;;;;;5053686;28;20037;-66
2023/08/20 10:16:05;;;;;;;1.38;0.50;;;26.20;52.10;;;;;;5075452;28;20024;-67
2023/08/20 10:18:34;;;;;;;2.08;0.50;;;26.20;52.10;;;;;;5075860;28;20127;-69
2023/08/20 10:21:02;;;;;;;3.63;0.70;;;26.20;52.10;;;;;;5092152;28;20032;-66
2023/08/20 10:23:28;;;;;;;2.70;1.10;;;26.20;52.10;;;;;;5080128;28;20029;-66
2023/08/20 10:25:54;;;;;;;1.58;0.60;;;26.20;52.10;;;;;;5053080;28;20087;-66
2023/08/20 10:28:25;;;;;;;1.83;0.50;;;26.30;52.10;;;;;;5069129;28;20028;-67
2023/08/20 10:31:12;;;;;;;1.92;0.40;;;26.20;52.00;;;;;;5091342;28;20028;-68
2023/08/20 10:33:48;;;;;;;1.60;0.50;;;26.30;52.00;;;;;;5093589;28;20099;-66
2023/08/20 10:36:25;;;;;;;1.85;0.60;;;26.30;52.00;;;;;;5090725;28;20383;-68
2023/08/20 10:38:55;;;;;;;1.15;0.47;;;26.30;52.00;;;;;;5066661;28;20042;-66
2023/08/20 10:41:28;;;;;;;0.93;0.55;;;26.30;51.90;;;;;;5051997;28;20039;-68
2023/08/20 10:43:59;;;;;;;1.27;0.40;;;26.40;52.00;;;;;;5038311;28;20052;-68
2023/08/20 10:46:27;;;;;;;1.58;0.60;;;26.30;51.90;;;;;;5054916;28;20090;-68
2023/08/20 10:48:54;;;;;;;1.63;0.65;;;26.40;52.00;;;;;;5071562;28;20087;-67
2023/08/20 10:51:26;;;;;;;1.35;0.40;;;26.40;51.90;;;;;;5053460;28;20025;-68
2023/08/20 10:54:01;;;;;;;0.55;0.40;;;26.40;51.70;;;;;;5075547;28;20062;-68
2023/08/20 10:56:55;;;;;;;0.63;0.40;;;26.40;51.60;;;;;;5052088;28;20093;-68
2023/08/20 10:59:31;;;;;;;3.17;0.70;;;26.40;51.40;;;;;;5059785;28;20404;-66
2023/08/20 11:01:59;;;;;;;0.75;0.43;;;26.40;51.30;;;;;;5055188;28;20033;-69
2023/08/20 11:04:28;;;;;;;0.95;0.60;;;26.40;51.30;;;;;;5053967;28;20095;-68
2023/08/20 11:06:56;;;;;;;0.73;0.40;;;26.40;51.10;;;;;;5066283;28;20331;-66
2023/08/20 11:09:24;;;;;;;1.42;0.50;;;26.40;50.80;;;;;;5090937;28;20499;-67
2023/08/20 11:11:51;;;;;;;3.38;0.63;;;26.50;50.60;;;;;;5071188;28;20063;-66
2023/08/20 11:14:19;;;;;;;0.68;0.50;;;26.40;50.20;;;;;;5091638;28;20040;-67
2023/08/20 11:16:46;;;;;;;1.75;0.50;;;26.40;50.00;;;;;;5084946;28;20027;-68
2023/08/20 11:19:13;;;;;;;1.52;0.50;;;26.50;49.70;;;;;;5047656;28;20378;-66
2023/08/20 11:21:40;;;;;;;2.22;0.50;;;26.40;49.30;;;;;;5073916;28;20077;-69
2023/08/20 11:24:07;;;;;;;0.82;0.38;;;26.40;49.30;;;;;;5057937;28;20416;-66
2023/08/20 11:26:35;;;;;;;0.85;0.40;;;26.40;49.10;;;;;;5083845;28;20131;-67
2023/08/20 11:29:05;;;;;;;2.17;0.60;;;26.40;48.90;;;;;;5073539;28;20046;-68
2023/08/20 11:31:31;;;;;;;2.05;0.50;;;26.40;48.70;;;;;;5060689;28;20025;-67
2023/08/20 11:33:57;;;;;;;1.25;0.50;;;26.40;48.60;;;;;;5087027;28;20355;-67
2023/08/20 11:36:23;;;;;;;1.50;0.50;;;26.40;48.40;;;;;;5091422;28;20028;-67
2023/08/20 11:38:53;;;;;;;1.27;0.60;;;26.40;48.30;;;;;;5088814;28;20051;-67
2023/08/20 11:41:21;;;;;;;1.83;0.77;;;26.50;48.10;;;;;;5092205;28;20042;-65
2023/08/20 11:43:48;;;;;;;1.05;0.40;;;26.50;48.00;;;;;;5074240;28;20050;-68
2023/08/20 11:46:15;;;;;;;1.17;0.40;;;26.50;47.90;;;;;;5085439;28;20039;-69
2023/08/20 11:49:06;;;;;;;1.33;0.50;;;26.50;47.80;;;;;;5089404;28;20354;-68
2023/08/20 11:51:39;;;;;;;1.45;0.60;;;26.50;47.60;;;;;;5092362;28;20040;-68
2023/08/20 11:54:13;;;;;;;2.22;0.40;;;26.40;47.50;;;;;;5091652;28;20032;-68
2023/08/20 11:56:50;;;;;;;0.90;0.40;;;26.50;47.60;;;;;;5073777;28;20031;-65
2023/08/20 11:59:18;;;;;;;1.35;0.50;;;26.50;47.50;;;;;;5092143;28;20429;-68
2023/08/20 12:01:57;;;;;;;1.63;0.55;;;26.50;47.40;;;;;;5071731;28;20036;-67
2023/08/20 12:04:27;;;;;;;1.30;0.50;;;26.50;47.30;;;;;;5088713;28;20040;-67
2023/08/20 12:07:10;;;;;;;1.45;0.50;;;26.50;47.20;;;;;;5075834;28;20024;-68
2023/08/20 12:09:36;;;;;;;1.23;0.50;;;26.40;47.00;;;;;;5073937;28;20040;-66
2023/08/20 12:12:02;;;;;;;1.38;0.30;;;26.50;47.00;;;;;;5091720;28;20369;-66
2023/08/20 12:14:29;;;;;;;1.58;0.45;;;26.50;47.00;;;;;;5091833;28;20031;-68
2023/08/20 12:16:55;;;;;;;0.95;0.40;;;26.50;47.00;;;;;;5086472;28;20028;-65
2023/08/20 12:19:21;;;;;;;1.98;0.40;;;26.50;47.60;;;;;;5055787;28;20044;-64
2023/08/20 12:21:47;;;;;;;1.05;0.50;;;26.50;46.90;;;;;;5055360;28;20073;-67
2023/08/20 12:24:13;;;;;;;1.52;0.50;;;26.50;47.00;;;;;;5055481;28;20093;-64
2023/08/20 12:26:40;;;;;;;1.55;0.60;;;26.50;47.00;;;;;;5055197;28;20108;-65
2023/08/20 12:29:07;;;;;;;1.02;0.40;;;26.50;47.10;;;;;;5055455;28;20153;-66
2023/08/20 12:31:34;;;;;;;0.93;0.38;;;26.50;47.20;;;;;;5037623;28;20041;-64
2023/08/20 12:34:00;;;;;;;1.52;0.50;;;26.50;47.10;;;;;;5075885;28;20052;-67
2023/08/20 12:36:26;;;;;;;1.77;0.40;;;26.50;47.00;;;;;;5095629;28;20058;-67
2023/08/20 12:38:52;;;;;;;1.95;0.60;;;26.50;46.90;;;;;;5077437;28;20097;-65
2023/08/20 12:41:21;;;;;;;2.25;0.65;;;26.50;46.90;;;;;;5095446;28;20031;-66
2023/08/20 12:43:47;;;;;;;1.25;0.40;;;26.50;46.90;;;;;;5095588;28;20327;-69
2023/08/20 12:46:13;;;;;;;1.30;0.50;;;26.50;47.00;;;;;;5076834;28;20103;-67
2023/08/20 12:48:40;;;;;;;1.90;0.50;;;26.50;47.10;;;;;;5090483;28;20052;-68
2023/08/20 12:51:07;;;;;;;1.83;0.40;;;26.60;47.30;;;;;;5095389;28;20032;-70